createdAt,value
2022-10-23T00:01:16.815Z,12.02
2022-10-23T00:03:44.721Z,13.77
2022-10-23T00:06:13.007Z,13.75
2022-10-23T00:08:40.973Z,12.77
2022-10-23T00:11:10.166Z,14.52
2022-10-23T00:13:37.900Z,12.90
2022-10-23T00:16:05.465Z,12.90
2022-10-23T00:18:32.910Z,12.90
2022-10-23T00:20:59.943Z,13.20
2022-10-23T00:23:26.931Z,11.10
2022-10-23T00:25:53.945Z,12.30
2022-10-23T00:28:21.086Z,11.88
2022-10-23T00:30:48.094Z,11.15
2022-10-23T00:33:15.928Z,11.38
2022-10-23T00:35:43.846Z,10.80
2022-10-23T00:38:11.583Z,9.07
2022-10-23T00:40:39.750Z,8.63
2022-10-23T00:43:07.483Z,7.80
2022-10-23T00:45:35.050Z,6.55
2022-10-23T00:48:03.395Z,6.53
2022-10-23T00:50:33.487Z,6.63
2022-10-23T00:53:03.568Z,6.65
2022-10-23T00:55:32.549Z,6.00
2022-10-23T00:57:59.870Z,6.05
2022-10-23T01:00:30.745Z,6.50
2022-10-23T01:03:00.003Z,6.47
2022-10-23T01:05:39.175Z,6.05
2022-10-23T01:08:17.647Z,5.53
2022-10-23T01:10:53.005Z,5.80
2022-10-23T01:14:18.296Z,4.32
2022-10-23T01:17:10.119Z,4.45
2022-10-23T01:20:19.016Z,8.23
2022-10-23T01:23:21.456Z,7.05
2022-10-23T01:26:33.650Z,7.82
2022-10-23T01:29:29.264Z,9.07
2022-10-23T01:32:09.934Z,9.13
2022-10-23T01:35:11.957Z,9.83
2022-10-23T01:38:05.036Z,8.25
2022-10-23T01:40:48.323Z,8.23
2022-10-23T01:43:21.229Z,7.68
2022-10-23T01:45:54.360Z,8.45
2022-10-23T01:48:28.072Z,7.40
2022-10-23T01:50:59.077Z,10.32
2022-10-23T01:53:30.912Z,11.57
2022-10-23T01:56:01.471Z,12.73
2022-10-23T01:58:31.753Z,11.88
2022-10-23T02:01:03.763Z,12.10
2022-10-23T02:03:34.133Z,12.70
2022-10-23T02:06:01.716Z,15.15
2022-10-23T02:08:29.014Z,15.05
2022-10-23T02:11:08.474Z,14.35
2022-10-23T02:14:18.763Z,15.95
2022-10-23T02:16:51.868Z,16.35
2022-10-23T02:19:54.536Z,15.98
2022-10-23T02:22:31.324Z,15.77
2022-10-23T02:25:11.638Z,14.65
2022-10-23T02:27:54.113Z,16.70
2022-10-23T02:30:24.811Z,16.30
2022-10-23T02:33:06.431Z,17.15
2022-10-23T02:35:33.467Z,17.60
2022-10-23T02:38:33.615Z,15.55
2022-10-23T02:41:15.712Z,16.35
2022-10-23T02:44:42.362Z,16.83
2022-10-23T02:47:58.048Z,17.52
2022-10-23T02:50:57.759Z,18.92
2022-10-23T02:53:48.247Z,17.15
2022-10-23T02:56:58.515Z,16.73
2022-10-23T02:59:52.145Z,16.87
2022-10-23T03:02:26.223Z,17.10
2022-10-23T03:04:56.310Z,16.30
2022-10-23T03:07:26.418Z,14.98
2022-10-23T03:10:05.323Z,14.25
2022-10-23T03:12:33.247Z,12.07
2022-10-23T03:15:00.473Z,12.95
2022-10-23T03:17:27.633Z,11.48
2022-10-23T03:19:58.476Z,11.50
2022-10-23T03:22:25.732Z,10.68
2022-10-23T03:24:52.781Z,8.80
2022-10-23T03:27:19.816Z,9.13
2022-10-23T03:29:46.940Z,8.73
2022-10-23T03:32:15.521Z,8.25
2022-10-23T03:34:42.983Z,6.70
2022-10-23T03:37:10.185Z,6.82
2022-10-23T03:39:37.255Z,6.72
2022-10-23T03:42:04.569Z,6.70
2022-10-23T03:44:32.054Z,5.95
2022-10-23T03:46:59.241Z,5.93
2022-10-23T03:49:26.881Z,5.45
2022-10-23T03:51:54.147Z,5.93
2022-10-23T03:54:26.414Z,5.28
2022-10-23T03:56:56.634Z,5.05
2022-10-23T04:01:51.908Z,5.47
2022-10-23T04:04:19.318Z,5.47
2022-10-23T04:06:46.414Z,4.78
2022-10-23T04:11:45.766Z,6.13
2022-10-23T04:14:14.039Z,4.68
2022-10-23T04:16:41.081Z,4.45
2022-10-23T04:19:08.043Z,5.18
2022-10-23T04:21:35.092Z,5.78
2022-10-23T04:24:02.126Z,5.18
2022-10-23T04:26:29.425Z,4.75
2022-10-23T04:28:56.505Z,4.65
2022-10-23T04:31:23.545Z,4.32
2022-10-23T04:33:50.611Z,5.05
2022-10-23T04:36:31.042Z,4.38
2022-10-23T04:39:04.139Z,4.93
2022-10-23T04:41:31.268Z,4.40
2022-10-23T04:43:58.378Z,4.45
2022-10-23T04:46:25.532Z,4.70
2022-10-23T04:48:52.573Z,4.60
2022-10-23T04:51:38.472Z,4.57
2022-10-23T04:54:25.792Z,3.88
2022-10-23T04:57:11.339Z,4.13
2022-10-23T04:59:54.949Z,3.30
2022-10-23T05:02:22.232Z,4.40
2022-10-23T05:04:50.201Z,4.32
2022-10-23T05:07:36.788Z,4.10
2022-10-23T05:10:14.337Z,4.18
2022-10-23T05:13:07.963Z,4.80
2022-10-23T05:15:35.115Z,4.90
2022-10-23T05:18:10.908Z,4.75
2022-10-23T05:20:40.023Z,4.70
2022-10-23T05:23:13.189Z,3.67
2022-10-23T05:25:42.941Z,4.55
2022-10-23T05:28:16.437Z,4.45
2022-10-23T05:30:43.779Z,4.38
2022-10-23T05:33:11.832Z,4.57
2022-10-23T05:35:44.657Z,4.88
2022-10-23T05:38:15.072Z,4.57
2022-10-23T05:40:43.182Z,3.70
2022-10-23T05:43:15.629Z,4.68
2022-10-23T05:46:05.389Z,4.22
2022-10-23T05:49:04.270Z,4.35
2022-10-23T05:51:40.443Z,4.15
2022-10-23T05:54:27.779Z,5.82
2022-10-23T05:57:15.161Z,4.20
2022-10-23T05:59:48.855Z,4.43
2022-10-23T06:02:47.818Z,3.95
2022-10-23T06:05:30.015Z,4.40
2022-10-23T06:08:21.187Z,4.30
2022-10-23T06:10:50.734Z,4.43
2022-10-23T06:13:18.700Z,4.32
2022-10-23T06:15:45.792Z,3.92
2022-10-23T06:18:21.909Z,4.32
2022-10-23T06:20:55.357Z,4.72
2022-10-23T06:23:25.786Z,5.63
2022-10-23T06:26:24.952Z,4.13
2022-10-23T06:29:14.773Z,4.75
2022-10-23T06:31:43.253Z,4.85
2022-10-23T06:34:12.395Z,5.18
2022-10-23T06:36:39.863Z,4.57
2022-10-23T06:39:32.096Z,5.25
2022-10-23T06:42:17.629Z,3.72
2022-10-23T06:45:17.459Z,4.32
2022-10-23T06:48:04.765Z,4.40
2022-10-23T06:50:50.554Z,4.00
2022-10-23T06:53:25.836Z,4.50
2022-10-23T06:56:05.740Z,5.68
2022-10-23T06:58:36.902Z,3.80
2022-10-23T07:01:14.009Z,4.00
2022-10-23T07:06:11.237Z,4.13
2022-10-23T07:08:39.190Z,3.83
2022-10-23T07:11:23.963Z,3.90
2022-10-23T07:13:51.219Z,5.22
2022-10-23T07:16:23.351Z,3.78
2022-10-23T07:18:59.776Z,5.03
2022-10-23T07:21:46.893Z,3.80
2022-10-23T07:24:25.332Z,4.50
2022-10-23T07:26:57.116Z,4.82
2022-10-23T07:29:27.162Z,4.57
2022-10-23T07:31:54.339Z,4.60
2022-10-23T07:34:50.610Z,4.93
2022-10-23T07:37:25.792Z,4.13
2022-10-23T07:39:53.040Z,3.83
2022-10-23T07:42:20.369Z,3.63
2022-10-23T07:44:48.784Z,3.75
2022-10-23T07:47:15.794Z,3.65
2022-10-23T07:49:47.471Z,4.33
2022-10-23T07:52:14.672Z,4.18
2022-10-23T07:55:04.884Z,4.18
2022-10-23T07:57:34.505Z,4.00
2022-10-23T08:00:19.925Z,4.30
2022-10-23T08:02:56.365Z,3.95
2022-10-23T08:05:23.572Z,3.67
2022-10-23T08:07:57.037Z,3.40
2022-10-23T08:10:24.476Z,3.40
2022-10-23T08:12:51.613Z,3.80
2022-10-23T08:15:22.265Z,3.92
2022-10-23T08:17:57.979Z,3.72
2022-10-23T08:20:43.513Z,3.80
2022-10-23T08:23:16.589Z,3.47
2022-10-23T08:25:44.978Z,2.83
2022-10-23T08:28:13.484Z,3.50
2022-10-23T08:30:51.205Z,4.20
2022-10-23T08:33:18.764Z,2.92
2022-10-23T08:35:46.860Z,3.75
2022-10-23T08:40:48.202Z,3.90
2022-10-23T08:43:50.572Z,3.20
2022-10-23T08:46:42.797Z,3.08
2022-10-23T08:49:45.774Z,3.85
2022-10-23T08:52:32.467Z,3.63
2022-10-23T08:55:35.604Z,3.50
2022-10-23T08:58:25.047Z,3.17
2022-10-23T09:00:52.755Z,2.72
2022-10-23T09:03:20.108Z,3.03
2022-10-23T09:06:12.450Z,3.70
2022-10-23T09:09:22.593Z,3.70
2022-10-23T09:12:07.777Z,3.55
2022-10-23T09:15:31.790Z,3.33
2022-10-23T09:18:12.531Z,3.10
2022-10-23T09:20:40.965Z,2.38
2022-10-23T09:23:17.505Z,2.28
2022-10-23T09:25:47.250Z,2.83
2022-10-23T09:28:22.996Z,2.33
2022-10-23T09:30:52.227Z,2.72
2022-10-23T09:33:24.354Z,2.33
2022-10-23T09:36:22.084Z,2.70
2022-10-23T09:38:50.864Z,1.80
2022-10-23T09:41:21.886Z,2.00
2022-10-23T09:46:57.485Z,2.55
2022-10-23T09:49:27.159Z,1.98
2022-10-23T09:52:22.304Z,2.35
2022-10-23T09:54:53.666Z,1.98
2022-10-23T09:57:29.271Z,1.90
2022-10-23T10:00:00.800Z,1.98
2022-10-23T10:02:30.938Z,2.10
2022-10-23T10:05:38.590Z,2.05
2022-10-23T10:08:54.826Z,1.58
2022-10-23T10:11:54.267Z,1.85
2022-10-23T10:14:52.189Z,2.03
2022-10-23T10:17:40.314Z,1.25
2022-10-23T10:20:59.634Z,2.03
2022-10-23T10:24:12.086Z,1.33
2022-10-23T10:27:13.238Z,1.40
2022-10-23T10:33:02.783Z,1.55
2022-10-23T10:35:53.125Z,1.65
2022-10-23T10:38:50.471Z,2.03
2022-10-23T10:41:55.658Z,1.63
2022-10-23T10:44:50.724Z,1.42
2022-10-23T10:47:25.813Z,1.70
2022-10-23T10:50:30.055Z,1.38
2022-10-23T10:53:42.831Z,1.88
2022-10-23T10:56:14.801Z,1.83
2022-10-23T10:58:54.253Z,1.67
2022-10-23T11:01:37.047Z,1.55
2022-10-23T11:04:33.005Z,1.90
2022-10-23T11:07:07.004Z,1.48
2022-10-23T11:09:34.109Z,1.42
2022-10-23T11:12:01.184Z,1.85
2022-10-23T11:14:33.502Z,4.32
2022-10-23T11:17:09.971Z,2.08
2022-10-23T11:20:29.172Z,1.88
2022-10-23T11:23:33.049Z,1.75
2022-10-23T11:26:25.704Z,1.63
2022-10-23T11:29:20.952Z,1.55
2022-10-23T11:32:35.739Z,1.85
2022-10-23T11:35:35.276Z,2.08
2022-10-23T11:38:30.800Z,1.50
2022-10-23T11:41:01.956Z,1.63
2022-10-23T11:43:50.594Z,2.00
2022-10-23T11:46:43.852Z,1.42
2022-10-23T11:49:21.546Z,1.63
2022-10-23T11:52:00.852Z,1.65
2022-10-23T11:54:28.074Z,1.70
2022-10-23T11:57:13.203Z,1.95
2022-10-23T12:00:01.026Z,1.50
2022-10-23T12:02:41.469Z,1.83
2022-10-23T12:05:27.542Z,1.60
2022-10-23T12:07:58.398Z,1.40
2022-10-23T12:10:35.050Z,1.25
2022-10-23T12:13:04.836Z,1.98
2022-10-23T12:15:35.932Z,1.70
2022-10-23T12:18:14.911Z,1.80
2022-10-23T12:21:02.595Z,1.67
2022-10-23T12:24:03.744Z,1.45
2022-10-23T12:26:50.947Z,1.23
2022-10-23T12:30:01.676Z,1.40
2022-10-23T12:35:28.321Z,1.73
2022-10-23T12:38:10.604Z,1.85
2022-10-23T12:40:37.745Z,2.03
2022-10-23T12:43:30.293Z,1.70
2022-10-23T12:46:20.687Z,1.38
2022-10-23T12:48:49.798Z,1.02
2022-10-23T12:51:23.887Z,1.35
2022-10-23T12:53:51.408Z,2.20
2022-10-23T12:56:19.230Z,2.40
2022-10-23T12:58:51.570Z,1.90
2022-10-23T13:01:28.991Z,1.70
2022-10-23T13:04:13.527Z,1.40
2022-10-23T13:06:40.763Z,1.40
2022-10-23T13:09:22.434Z,1.50
2022-10-23T13:12:20.930Z,1.42
2022-10-23T13:15:03.730Z,1.80
2022-10-23T13:18:03.739Z,1.58
2022-10-23T13:20:35.389Z,1.55
2022-10-23T13:23:33.116Z,1.92
2022-10-23T13:26:07.132Z,1.50
2022-10-23T13:28:42.545Z,1.70
2022-10-23T13:31:36.029Z,1.60
2022-10-23T13:34:15.557Z,1.35
2022-10-23T13:36:53.682Z,1.30
2022-10-23T13:39:30.467Z,1.00
2022-10-23T13:42:01.712Z,1.70
2022-10-23T13:44:29.127Z,1.60
2022-10-23T13:46:56.776Z,1.70
2022-10-23T13:49:23.884Z,1.65
2022-10-23T13:51:56.567Z,1.63
2022-10-23T13:57:00.242Z,1.33
2022-10-23T13:59:27.377Z,1.58
2022-10-23T14:01:54.647Z,1.55
2022-10-23T14:04:21.944Z,1.30
2022-10-23T14:06:48.895Z,1.88
2022-10-23T14:09:18.490Z,1.80
2022-10-23T14:11:45.834Z,1.40
2022-10-23T14:14:13.020Z,1.83
2022-10-23T14:16:40.036Z,1.88
2022-10-23T14:19:08.617Z,1.88
2022-10-23T14:21:35.674Z,1.52
2022-10-23T14:24:02.757Z,1.33
2022-10-23T14:26:30.504Z,1.85
2022-10-23T14:29:02.325Z,1.60
2022-10-23T14:31:33.838Z,1.83
2022-10-23T14:34:02.055Z,2.83
2022-10-23T14:36:38.541Z,1.63
2022-10-23T14:39:16.736Z,2.45
2022-10-23T14:41:44.137Z,2.70
2022-10-23T14:44:11.398Z,2.92
2022-10-23T14:46:38.653Z,2.90
2022-10-23T14:49:06.118Z,2.83
2022-10-23T14:51:33.378Z,2.47
2022-10-23T14:54:02.547Z,2.67
2022-10-23T14:56:31.636Z,2.35
2022-10-23T14:59:03.046Z,3.10
2022-10-23T15:01:36.372Z,2.55
2022-10-23T15:04:04.544Z,2.13
2022-10-23T15:06:32.794Z,1.35
2022-10-23T15:08:59.922Z,1.70
2022-10-23T15:11:27.403Z,2.00
2022-10-23T15:13:55.238Z,1.50
2022-10-23T15:16:23.341Z,1.52
2022-10-23T15:18:51.274Z,2.25
2022-10-23T15:21:19.071Z,3.05
2022-10-23T15:23:46.976Z,2.60
2022-10-23T15:26:23.945Z,1.90
2022-10-23T15:28:56.634Z,2.72
2022-10-23T15:31:43.320Z,1.95
2022-10-23T15:34:22.488Z,1.42
2022-10-23T15:36:50.237Z,1.27
2022-10-23T15:39:23.874Z,1.52
2022-10-23T15:41:52.983Z,1.48
2022-10-23T15:44:24.895Z,1.60
2022-10-23T15:46:52.269Z,2.35
2022-10-23T15:49:19.767Z,2.47
2022-10-23T15:51:47.104Z,2.88
2022-10-23T15:54:19.200Z,2.40
2022-10-23T15:56:48.612Z,1.65
2022-10-23T15:59:15.896Z,1.75
2022-10-23T16:01:43.163Z,1.83
2022-10-23T16:04:10.408Z,3.17
2022-10-23T16:06:37.967Z,2.90
2022-10-23T16:09:05.021Z,2.90
2022-10-23T16:11:35.753Z,5.10
2022-10-23T16:14:04.301Z,5.90
2022-10-23T16:16:32.560Z,5.95
2022-10-23T16:19:01.073Z,3.90
2022-10-23T16:21:31.112Z,4.07
2022-10-23T16:24:00.109Z,3.13
2022-10-23T16:26:27.969Z,3.47
2022-10-23T16:28:56.977Z,4.07
2022-10-23T16:31:24.715Z,3.38
2022-10-23T16:33:53.027Z,2.88
2022-10-23T16:36:20.698Z,2.97
2022-10-23T16:39:18.314Z,2.28
2022-10-23T16:42:04.153Z,2.55
2022-10-23T16:44:43.870Z,3.05
2022-10-23T16:47:10.938Z,3.60
2022-10-23T16:49:37.986Z,3.15
2022-10-23T16:52:05.019Z,2.53
2022-10-23T16:54:31.983Z,2.08
2022-10-23T16:56:59.077Z,1.80
2022-10-23T16:59:25.961Z,2.42
2022-10-23T17:01:53.590Z,5.07
2022-10-23T17:04:20.725Z,2.50
2022-10-23T17:06:47.652Z,2.70
2022-10-23T17:09:15.012Z,3.50
2022-10-23T17:11:44.664Z,3.28
2022-10-23T17:14:15.664Z,3.92
2022-10-23T17:19:32.749Z,3.85
2022-10-23T17:22:01.851Z,3.17
2022-10-23T17:24:28.873Z,3.08
2022-10-23T17:26:56.309Z,3.60
2022-10-23T17:29:23.261Z,4.80
2022-10-23T17:31:51.324Z,5.95
2022-10-23T17:34:22.331Z,5.80
2022-10-23T17:39:21.206Z,3.88
2022-10-23T17:41:48.739Z,4.22
2022-10-23T17:44:16.118Z,2.90
2022-10-23T17:46:43.321Z,2.78
2022-10-23T17:49:10.903Z,3.22
2022-10-23T17:51:38.296Z,2.92
2022-10-23T17:54:09.214Z,2.67
2022-10-23T17:56:38.466Z,2.42
2022-10-23T17:59:12.811Z,2.00
2022-10-23T18:01:39.993Z,1.77
2022-10-23T18:04:08.205Z,2.22
2022-10-23T18:06:40.912Z,2.75
2022-10-23T18:09:08.098Z,2.13
2022-10-23T18:11:38.104Z,2.00
2022-10-23T18:14:06.442Z,2.13
2022-10-23T18:16:34.933Z,1.77
2022-10-23T18:19:02.001Z,2.95
2022-10-23T18:21:29.003Z,1.75
2022-10-23T18:23:58.277Z,2.17
2022-10-23T18:26:28.093Z,2.20
2022-10-23T18:28:57.470Z,2.20
2022-10-23T18:31:25.968Z,2.17
2022-10-23T18:34:01.677Z,2.40
2022-10-23T18:36:32.619Z,2.97
2022-10-23T18:38:59.695Z,2.58
2022-10-23T18:41:27.399Z,2.60
2022-10-23T18:43:54.984Z,2.45
2022-10-23T18:46:22.547Z,2.42
2022-10-23T18:48:50.982Z,2.05
2022-10-23T18:51:21.229Z,2.17
2022-10-23T18:53:49.004Z,1.83
2022-10-23T18:56:22.086Z,2.30
2022-10-23T18:58:51.054Z,1.90
2022-10-23T19:01:19.637Z,2.10
2022-10-23T19:03:46.980Z,2.15
2022-10-23T19:06:14.751Z,1.98
2022-10-23T19:08:43.299Z,1.92
2022-10-23T19:11:11.723Z,2.33
2022-10-23T19:13:39.701Z,2.17
2022-10-23T19:16:18.166Z,3.20
2022-10-23T19:18:53.043Z,2.70
2022-10-23T19:21:22.196Z,2.22
2022-10-23T19:23:49.934Z,2.90
2022-10-23T19:26:17.540Z,3.28
2022-10-23T19:28:47.484Z,3.58
2022-10-23T19:31:14.663Z,3.60
2022-10-23T19:33:41.781Z,3.17
2022-10-23T19:36:13.828Z,3.20
2022-10-23T19:38:42.136Z,2.53
2022-10-23T19:41:09.589Z,4.00
2022-10-23T19:43:37.910Z,5.85
2022-10-23T19:46:09.350Z,7.80
2022-10-23T19:48:42.613Z,6.35
2022-10-23T19:51:09.909Z,4.53
2022-10-23T19:53:37.077Z,5.53
2022-10-23T19:56:08.916Z,5.15
2022-10-23T19:58:35.972Z,6.20
2022-10-23T20:01:16.516Z,5.35
2022-10-23T20:03:45.667Z,4.32
2022-10-23T20:06:14.397Z,5.20
2022-10-23T20:08:41.977Z,3.33
2022-10-23T20:11:10.313Z,4.63
2022-10-23T20:13:37.275Z,3.83
2022-10-23T20:16:04.404Z,3.10
2022-10-23T20:18:31.624Z,2.85
2022-10-23T20:21:02.241Z,3.60
2022-10-23T20:23:29.313Z,3.28
2022-10-23T20:26:04.283Z,3.38
2022-10-23T20:28:31.200Z,5.18
2022-10-23T20:30:58.174Z,3.35
2022-10-23T20:33:25.502Z,3.10
2022-10-23T20:35:52.961Z,3.22
2022-10-23T20:38:20.231Z,2.65
2022-10-23T20:40:47.252Z,3.22
2022-10-23T20:43:14.294Z,3.40
2022-10-23T20:45:41.239Z,3.08
2022-10-23T20:48:08.203Z,3.47
2022-10-23T20:50:35.496Z,3.40
2022-10-23T20:53:02.569Z,4.28
2022-10-23T20:55:29.648Z,4.20
2022-10-23T20:57:56.581Z,4.13
2022-10-23T21:00:23.675Z,4.00
2022-10-23T21:02:52.652Z,4.68
2022-10-23T21:05:19.795Z,3.78
2022-10-23T21:07:46.872Z,3.83
2022-10-23T21:10:13.836Z,4.00
2022-10-23T21:12:40.934Z,5.25
2022-10-23T21:15:09.242Z,3.83
2022-10-23T21:17:38.992Z,4.57
2022-10-23T21:20:06.566Z,4.40
2022-10-23T21:22:33.487Z,3.85
2022-10-23T21:25:01.647Z,4.45
2022-10-23T21:27:28.704Z,4.25
2022-10-23T21:29:55.664Z,4.75
2022-10-23T21:32:22.779Z,4.30
2022-10-23T21:34:49.688Z,4.20
2022-10-23T21:37:16.696Z,3.47
2022-10-23T21:39:44.489Z,6.00
2022-10-23T21:42:13.289Z,6.05
2022-10-23T21:44:40.829Z,6.15
2022-10-23T21:47:07.872Z,5.63
2022-10-23T21:49:34.816Z,5.25
2022-10-23T21:52:01.726Z,5.60
2022-10-23T21:54:28.679Z,5.13
2022-10-23T21:56:55.802Z,5.10
2022-10-23T21:59:27.858Z,5.00
2022-10-23T22:01:57.381Z,5.07
2022-10-23T22:04:24.489Z,4.60
2022-10-23T22:06:51.449Z,5.53
2022-10-23T22:09:20.842Z,5.75
2022-10-23T22:11:54.806Z,5.03
2022-10-23T22:14:22.210Z,4.20
2022-10-23T22:16:49.403Z,5.53
2022-10-23T22:19:17.974Z,6.88
2022-10-23T22:21:45.384Z,7.75
2022-10-23T22:24:12.590Z,6.07
2022-10-23T22:26:42.930Z,7.55
2022-10-23T22:29:12.864Z,7.10
2022-10-23T22:31:44.147Z,7.80
2022-10-23T22:34:26.841Z,6.55
2022-10-23T22:37:04.312Z,8.35
2022-10-23T22:39:31.348Z,9.18
2022-10-23T22:41:58.412Z,8.10
2022-10-23T22:44:25.445Z,8.25
2022-10-23T22:46:52.508Z,6.75
2022-10-23T22:49:19.453Z,5.90
2022-10-23T22:51:46.493Z,5.03
2022-10-23T22:54:13.456Z,5.32
2022-10-23T22:56:40.523Z,5.47
2022-10-23T22:59:07.509Z,5.35
2022-10-23T23:01:36.406Z,6.55
2022-10-23T23:04:19.454Z,5.15
2022-10-23T23:06:50.631Z,5.70
2022-10-23T23:09:18.845Z,6.82
2022-10-23T23:11:51.755Z,6.20
2022-10-23T23:14:24.128Z,5.68
2022-10-23T23:16:53.044Z,5.68
2022-10-23T23:19:22.773Z,6.40
2022-10-23T23:21:49.911Z,5.82
2022-10-23T23:24:16.889Z,5.90
2022-10-23T23:26:43.861Z,5.93
2022-10-23T23:29:11.162Z,5.63
2022-10-23T23:31:38.199Z,5.22
2022-10-23T23:34:05.194Z,5.25
2022-10-23T23:36:32.762Z,4.90
2022-10-23T23:39:00.167Z,4.35
2022-10-23T23:41:28.631Z,4.75
2022-10-23T23:43:57.667Z,3.72
2022-10-23T23:46:25.527Z,5.53
2022-10-23T23:48:52.476Z,4.40
2022-10-23T23:51:24.940Z,4.38
2022-10-23T23:53:52.454Z,4.13
2022-10-23T23:56:20.514Z,4.60
2022-10-23T23:58:47.487Z,5.03
